Disclaimer

Please do not use the information listed here in-flight or in-navigation, as they are not provided to us by the airports but are provided by volunteers, so they might be outdated.

Search


Regions


Airport information page

No radio frequency information is available.

Airport informations:
Latitude: 27° 42' 01.34" N
Longitude: 008° 10' 01.57" W
Elevation: 1453 feet - 443 meters
Operating hours: N/A
Operating agency: Military
Timezone: N/A
Fuel: Jet A1, without icing nhibitor.

100/130 octane gasoline, leaded, MIL-L-5572F (GREEN)

Runway information:
08/26 - 9840 x 150 feet< - >2999 x 46 meters
08R/26L - 9840 x 150 feet< - >2999 x 46 meters

Recent METARs:
DAOF 130300Z 27007KT CAVOK 10/M03 Q1022
DAOF 130300Z 27007KT CAVOK 10/M03 Q1022
DAOF 130400Z 27006KT CAVOK 10/M03 Q1022

Airport on the map: